Terminal Aerodrome Forecast
Issued by NWS

Home | Current Version | Previous Version | Graphics & Text | Print | Product List | Glossary On
Versions: 1 2 3 4 5 6 7 8 9 10 11 12 13
000
FTUS43 KTOP 021037 AAA
TAFMHK
TAF AMD
KMHK 021037Z 0211/0306 20008KT P6SM -RA VCTS BKN090CB WS020/22040KT
     FM021300 19007KT P6SM SCT100
     FM021700 19013G21KT P6SM FEW120
     FM030000 18007KT P6SM FEW120=

USA.gov is the U.S. government's official web portal to all federal, state and local government web resources and services.